sensor_id;sensor_type;location;lat;lon;timestamp;P1;durP1;ratioP1;P2;durP2;ratioP2
79412;SDS011;68863;49.528;11.010;2024-01-30T00:00:35;7.60;;;2.60;;
79412;SDS011;68863;49.528;11.010;2024-01-30T00:01:36;8.15;;;2.58;;
79412;SDS011;68863;49.528;11.010;2024-01-30T00:02:36;8.60;;;2.42;;
79412;SDS011;68863;49.528;11.010;2024-01-30T00:03:36;8.02;;;2.92;;
79412;SDS011;68863;49.528;11.010;2024-01-30T00:04:37;8.68;;;2.45;;
79412;SDS011;68863;49.528;11.010;2024-01-30T00:05:37;7.35;;;2.55;;
79412;SDS011;68863;49.528;11.010;2024-01-30T00:06:37;7.15;;;2.42;;
79412;SDS011;68863;49.528;11.010;2024-01-30T00:07:38;7.35;;;2.47;;
79412;SDS011;68863;49.528;11.010;2024-01-30T00:08:38;7.78;;;2.72;;
79412;SDS011;68863;49.528;11.010;2024-01-30T00:09:38;9.80;;;2.72;;
79412;SDS011;68863;49.528;11.010;2024-01-30T00:10:39;8.57;;;2.58;;
79412;SDS011;68863;49.528;11.010;2024-01-30T00:11:40;10.05;;;3.05;;
79412;SDS011;68863;49.528;11.010;2024-01-30T00:12:41;7.55;;;2.65;;
79412;SDS011;68863;49.528;11.010;2024-01-30T00:13:41;8.05;;;2.90;;
79412;SDS011;68863;49.528;11.010;2024-01-30T00:14:42;6.45;;;2.85;;
79412;SDS011;68863;49.528;11.010;2024-01-30T00:15:45;7.30;;;2.60;;
79412;SDS011;68863;49.528;11.010;2024-01-30T00:16:46;8.38;;;2.70;;
79412;SDS011;68863;49.528;11.010;2024-01-30T00:17:46;7.30;;;2.47;;
79412;SDS011;68863;49.528;11.010;2024-01-30T00:18:46;7.97;;;3.10;;
79412;SDS011;68863;49.528;11.010;2024-01-30T00:19:47;7.78;;;3.15;;
79412;SDS011;68863;49.528;11.010;2024-01-30T00:20:47;7.00;;;2.45;;
79412;SDS011;68863;49.528;11.010;2024-01-30T00:21:48;7.38;;;2.15;;
79412;SDS011;68863;49.528;11.010;2024-01-30T00:22:48;6.18;;;2.63;;
79412;SDS011;68863;49.528;11.010;2024-01-30T00:23:49;9.38;;;2.88;;
79412;SDS011;68863;49.528;11.010;2024-01-30T00:24:49;7.90;;;2.50;;
79412;SDS011;68863;49.528;11.010;2024-01-30T00:25:50;8.43;;;2.60;;
79412;SDS011;68863;49.528;11.010;2024-01-30T00:26:50;7.95;;;2.50;;
79412;SDS011;68863;49.528;11.010;2024-01-30T00:27:51;6.85;;;2.67;;
79412;SDS011;68863;49.528;11.010;2024-01-30T00:28:51;6.68;;;2.47;;
79412;SDS011;68863;49.528;11.010;2024-01-30T00:29:51;6.55;;;2.72;;
79412;SDS011;68863;49.528;11.010;2024-01-30T00:30:52;8.93;;;2.35;;
79412;SDS011;68863;49.528;11.010;2024-01-30T00:31:52;7.80;;;2.33;;
79412;SDS011;68863;49.528;11.010;2024-01-30T00:32:53;5.47;;;2.17;;
79412;SDS011;68863;49.528;11.010;2024-01-30T00:33:54;6.50;;;2.15;;
79412;SDS011;68863;49.528;11.010;2024-01-30T00:34:54;7.57;;;2.47;;
79412;SDS011;68863;49.528;11.010;2024-01-30T00:35:55;7.13;;;2.17;;
79412;SDS011;68863;49.528;11.010;2024-01-30T00:36:55;7.60;;;2.15;;
79412;SDS011;68863;49.528;11.010;2024-01-30T00:37:56;6.50;;;2.53;;
79412;SDS011;68863;49.528;11.010;2024-01-30T00:38:57;7.95;;;2.38;;
79412;SDS011;68863;49.528;11.010;2024-01-30T00:39:57;6.13;;;2.33;;
79412;SDS011;68863;49.528;11.010;2024-01-30T00:40:58;7.30;;;2.15;;
79412;SDS011;68863;49.528;11.010;2024-01-30T00:41:58;5.63;;;1.88;;
79412;SDS011;68863;49.528;11.010;2024-01-30T00:42:58;7.88;;;2.35;;
79412;SDS011;68863;49.528;11.010;2024-01-30T00:43:59;6.20;;;2.00;;
79412;SDS011;68863;49.528;11.010;2024-01-30T00:44:59;7.28;;;1.98;;
79412;SDS011;68863;49.528;11.010;2024-01-30T00:45:59;7.15;;;2.42;;
79412;SDS011;68863;49.528;11.010;2024-01-30T00:47:00;7.28;;;1.95;;
79412;SDS011;68863;49.528;11.010;2024-01-30T00:48:00;5.82;;;1.88;;
79412;SDS011;68863;49.528;11.010;2024-01-30T00:49:00;6.47;;;1.85;;
79412;SDS011;68863;49.528;11.010;2024-01-30T00:50:01;5.63;;;2.22;;
79412;SDS011;68863;49.528;11.010;2024-01-30T00:51:01;6.95;;;1.80;;
79412;SDS011;68863;49.528;11.010;2024-01-30T00:52:01;6.95;;;1.85;;
79412;SDS011;68863;49.528;11.010;2024-01-30T00:53:02;7.35;;;2.30;;
79412;SDS011;68863;49.528;11.010;2024-01-30T00:54:02;6.65;;;2.00;;
79412;SDS011;68863;49.528;11.010;2024-01-30T00:55:03;7.70;;;1.98;;
79412;SDS011;68863;49.528;11.010;2024-01-30T00:56:04;6.43;;;2.10;;
79412;SDS011;68863;49.528;11.010;2024-01-30T00:57:04;8.40;;;2.42;;
79412;SDS011;68863;49.528;11.010;2024-01-30T00:58:05;7.03;;;2.08;;
79412;SDS011;68863;49.528;11.010;2024-01-30T00:59:05;5.35;;;1.95;;
79412;SDS011;68863;49.528;11.010;2024-01-30T01:00:06;6.07;;;1.70;;
79412;SDS011;68863;49.528;11.010;2024-01-30T01:01:09;6.38;;;1.70;;
79412;SDS011;68863;49.528;11.010;2024-01-30T01:02:09;6.03;;;2.00;;
79412;SDS011;68863;49.528;11.010;2024-01-30T01:03:09;6.35;;;2.08;;
79412;SDS011;68863;49.528;11.010;2024-01-30T01:04:10;5.43;;;1.83;;
79412;SDS011;68863;49.528;11.010;2024-01-30T01:05:10;6.25;;;2.20;;
79412;SDS011;68863;49.528;11.010;2024-01-30T01:06:11;5.38;;;2.10;;
79412;SDS011;68863;49.528;11.010;2024-01-30T01:07:11;6.90;;;2.00;;
79412;SDS011;68863;49.528;11.010;2024-01-30T01:08:12;6.70;;;2.33;;
79412;SDS011;68863;49.528;11.010;2024-01-30T01:09:12;7.63;;;2.10;;
79412;SDS011;68863;49.528;11.010;2024-01-30T01:10:12;8.65;;;2.10;;
79412;SDS011;68863;49.528;11.010;2024-01-30T01:11:13;6.07;;;2.10;;
79412;SDS011;68863;49.528;11.010;2024-01-30T01:12:14;7.30;;;2.50;;
79412;SDS011;68863;49.528;11.010;2024-01-30T01:13:14;7.38;;;2.10;;
79412;SDS011;68863;49.528;11.010;2024-01-30T01:14:15;5.32;;;2.33;;
79412;SDS011;68863;49.528;11.010;2024-01-30T01:15:15;10.55;;;2.88;;
79412;SDS011;68863;49.528;11.010;2024-01-30T01:16:15;7.78;;;2.40;;
79412;SDS011;68863;49.528;11.010;2024-01-30T01:17:16;6.68;;;2.53;;
79412;SDS011;68863;49.528;11.010;2024-01-30T01:18:16;6.97;;;2.08;;
79412;SDS011;68863;49.528;11.010;2024-01-30T01:19:17;7.30;;;2.30;;
79412;SDS011;68863;49.528;11.010;2024-01-30T01:20:17;6.28;;;2.35;;
79412;SDS011;68863;49.528;11.010;2024-01-30T01:21:17;7.53;;;1.90;;
79412;SDS011;68863;49.528;11.010;2024-01-30T01:22:18;7.45;;;2.17;;
79412;SDS011;68863;49.528;11.010;2024-01-30T01:23:18;7.32;;;2.22;;
79412;SDS011;68863;49.528;11.010;2024-01-30T01:24:18;6.25;;;1.85;;
79412;SDS011;68863;49.528;11.010;2024-01-30T01:25:19;6.28;;;2.03;;
79412;SDS011;68863;49.528;11.010;2024-01-30T01:26:19;5.07;;;2.00;;
79412;SDS011;68863;49.528;11.010;2024-01-30T01:27:20;7.53;;;2.25;;
79412;SDS011;68863;49.528;11.010;2024-01-30T01:28:21;6.82;;;2.88;;
79412;SDS011;68863;49.528;11.010;2024-01-30T01:29:21;7.20;;;2.60;;
79412;SDS011;68863;49.528;11.010;2024-01-30T01:30:28;5.70;;;2.03;;
79412;SDS011;68863;49.528;11.010;2024-01-30T01:31:29;7.30;;;1.88;;
79412;SDS011;68863;49.528;11.010;2024-01-30T01:32:29;5.75;;;1.95;;
79412;SDS011;68863;49.528;11.010;2024-01-30T01:33:33;7.53;;;2.40;;
79412;SDS011;68863;49.528;11.010;2024-01-30T01:34:34;6.70;;;1.98;;
79412;SDS011;68863;49.528;11.010;2024-01-30T01:35:34;7.25;;;1.85;;
79412;SDS011;68863;49.528;11.010;2024-01-30T01:36:35;7.68;;;2.15;;
79412;SDS011;68863;49.528;11.010;2024-01-30T01:37:35;5.90;;;1.98;;
79412;SDS011;68863;49.528;11.010;2024-01-30T01:38:35;6.78;;;1.77;;
79412;SDS011;68863;49.528;11.010;2024-01-30T01:39:36;6.47;;;1.92;;
79412;SDS011;68863;49.528;11.010;2024-01-30T01:40:36;5.60;;;1.95;;
79412;SDS011;68863;49.528;11.010;2024-01-30T01:41:39;6.95;;;2.30;;
79412;SDS011;68863;49.528;11.010;2024-01-30T01:42:39;6.43;;;1.95;;
79412;SDS011;68863;49.528;11.010;2024-01-30T01:43:40;5.35;;;2.40;;
79412;SDS011;68863;49.528;11.010;2024-01-30T01:44:40;6.35;;;2.05;;
79412;SDS011;68863;49.528;11.010;2024-01-30T01:45:41;5.55;;;1.73;;
79412;SDS011;68863;49.528;11.010;2024-01-30T01:46:41;6.55;;;2.15;;
79412;SDS011;68863;49.528;11.010;2024-01-30T01:47:42;7.40;;;2.38;;
79412;SDS011;68863;49.528;11.010;2024-01-30T01:48:45;7.13;;;2.40;;
79412;SDS011;68863;49.528;11.010;2024-01-30T01:49:47;6.13;;;2.33;;
79412;SDS011;68863;49.528;11.010;2024-01-30T01:50:47;6.65;;;1.98;;
79412;SDS011;68863;49.528;11.010;2024-01-30T01:51:48;6.18;;;1.73;;
79412;SDS011;68863;49.528;11.010;2024-01-30T01:52:50;6.65;;;2.25;;
79412;SDS011;68863;49.528;11.010;2024-01-30T01:53:51;8.05;;;2.45;;
79412;SDS011;68863;49.528;11.010;2024-01-30T01:54:53;7.43;;;2.13;;
79412;SDS011;68863;49.528;11.010;2024-01-30T01:55:54;6.20;;;2.20;;
79412;SDS011;68863;49.528;11.010;2024-01-30T01:56:55;6.18;;;1.80;;
79412;SDS011;68863;49.528;11.010;2024-01-30T01:57:55;4.95;;;2.00;;
79412;SDS011;68863;49.528;11.010;2024-01-30T01:58:58;5.85;;;2.17;;
79412;SDS011;68863;49.528;11.010;2024-01-30T02:00:01;6.68;;;1.95;;
79412;SDS011;68863;49.528;11.010;2024-01-30T02:01:02;5.65;;;1.58;;
79412;SDS011;68863;49.528;11.010;2024-01-30T02:02:03;5.47;;;1.80;;
79412;SDS011;68863;49.528;11.010;2024-01-30T02:03:05;6.93;;;1.60;;
79412;SDS011;68863;49.528;11.010;2024-01-30T02:04:06;4.72;;;1.63;;
79412;SDS011;68863;49.528;11.010;2024-01-30T02:05:08;6.85;;;2.03;;
79412;SDS011;68863;49.528;11.010;2024-01-30T02:06:08;6.55;;;2.20;;
79412;SDS011;68863;49.528;11.010;2024-01-30T02:07:09;6.90;;;1.88;;
79412;SDS011;68863;49.528;11.010;2024-01-30T02:08:10;5.80;;;1.52;;
79412;SDS011;68863;49.528;11.010;2024-01-30T02:09:10;5.93;;;1.85;;
79412;SDS011;68863;49.528;11.010;2024-01-30T02:10:11;6.30;;;1.90;;
79412;SDS011;68863;49.528;11.010;2024-01-30T02:11:11;6.60;;;2.40;;
79412;SDS011;68863;49.528;11.010;2024-01-30T02:12:12;5.93;;;1.88;;
79412;SDS011;68863;49.528;11.010;2024-01-30T02:13:12;8.48;;;1.70;;
79412;SDS011;68863;49.528;11.010;2024-01-30T02:14:12;7.63;;;1.50;;
79412;SDS011;68863;49.528;11.010;2024-01-30T02:15:13;5.50;;;1.92;;
79412;SDS011;68863;49.528;11.010;2024-01-30T02:16:14;5.38;;;1.83;;
79412;SDS011;68863;49.528;11.010;2024-01-30T02:17:15;5.95;;;1.92;;
79412;SDS011;68863;49.528;11.010;2024-01-30T02:18:16;7.60;;;2.25;;
79412;SDS011;68863;49.528;11.010;2024-01-30T02:19:16;6.50;;;1.65;;
79412;SDS011;68863;49.528;11.010;2024-01-30T02:20:17;6.32;;;2.17;;
79412;SDS011;68863;49.528;11.010;2024-01-30T02:21:18;7.50;;;2.30;;
79412;SDS011;68863;49.528;11.010;2024-01-30T02:22:19;5.72;;;1.70;;
79412;SDS011;68863;49.528;11.010;2024-01-30T02:23:22;7.32;;;2.10;;
79412;SDS011;68863;49.528;11.010;2024-01-30T02:24:25;5.80;;;1.92;;
79412;SDS011;68863;49.528;11.010;2024-01-30T02:25:33;7.50;;;2.08;;
79412;SDS011;68863;49.528;11.010;2024-01-30T02:26:34;6.40;;;2.03;;
79412;SDS011;68863;49.528;11.010;2024-01-30T02:27:34;8.18;;;2.55;;
79412;SDS011;68863;49.528;11.010;2024-01-30T02:28:34;7.60;;;2.00;;
79412;SDS011;68863;49.528;11.010;2024-01-30T02:29:35;7.38;;;2.00;;
79412;SDS011;68863;49.528;11.010;2024-01-30T02:30:35;7.88;;;2.30;;
79412;SDS011;68863;49.528;11.010;2024-01-30T02:31:35;6.13;;;1.92;;
79412;SDS011;68863;49.528;11.010;2024-01-30T02:32:36;7.03;;;2.05;;
79412;SDS011;68863;49.528;11.010;2024-01-30T02:33:36;5.90;;;1.98;;
79412;SDS011;68863;49.528;11.010;2024-01-30T02:34:36;5.00;;;1.70;;
79412;SDS011;68863;49.528;11.010;2024-01-30T02:35:37;8.48;;;2.20;;
79412;SDS011;68863;49.528;11.010;2024-01-30T02:36:37;6.53;;;2.25;;
79412;SDS011;68863;49.528;11.010;2024-01-30T02:37:37;8.95;;;2.30;;
79412;SDS011;68863;49.528;11.010;2024-01-30T02:38:38;6.50;;;2.00;;
79412;SDS011;68863;49.528;11.010;2024-01-30T02:39:38;8.50;;;2.28;;
79412;SDS011;68863;49.528;11.010;2024-01-30T02:40:39;6.75;;;2.30;;
79412;SDS011;68863;49.528;11.010;2024-01-30T02:41:39;6.55;;;2.42;;
79412;SDS011;68863;49.528;11.010;2024-01-30T02:42:40;6.07;;;2.35;;
79412;SDS011;68863;49.528;11.010;2024-01-30T02:43:41;8.85;;;2.38;;
79412;SDS011;68863;49.528;11.010;2024-01-30T02:44:42;8.05;;;2.60;;
79412;SDS011;68863;49.528;11.010;2024-01-30T02:45:42;8.73;;;2.22;;
79412;SDS011;68863;49.528;11.010;2024-01-30T02:46:42;7.28;;;2.40;;
79412;SDS011;68863;49.528;11.010;2024-01-30T02:47:43;7.63;;;2.55;;
79412;SDS011;68863;49.528;11.010;2024-01-30T02:48:43;9.77;;;2.35;;
79412;SDS011;68863;49.528;11.010;2024-01-30T02:49:43;5.65;;;2.28;;
79412;SDS011;68863;49.528;11.010;2024-01-30T02:50:44;7.28;;;2.20;;
79412;SDS011;68863;49.528;11.010;2024-01-30T02:51:45;9.10;;;2.65;;
79412;SDS011;68863;49.528;11.010;2024-01-30T02:52:46;7.13;;;2.10;;
79412;SDS011;68863;49.528;11.010;2024-01-30T02:53:46;9.00;;;2.22;;
79412;SDS011;68863;49.528;11.010;2024-01-30T02:54:47;6.63;;;2.10;;
79412;SDS011;68863;49.528;11.010;2024-01-30T02:55:47;7.85;;;2.50;;
79412;SDS011;68863;49.528;11.010;2024-01-30T02:56:47;6.22;;;1.98;;
79412;SDS011;68863;49.528;11.010;2024-01-30T02:57:48;6.32;;;1.85;;
79412;SDS011;68863;49.528;11.010;2024-01-30T02:58:48;6.50;;;2.30;;
79412;SDS011;68863;49.528;11.010;2024-01-30T02:59:49;7.38;;;2.47;;
79412;SDS011;68863;49.528;11.010;2024-01-30T03:00:49;6.18;;;2.40;;
79412;SDS011;68863;49.528;11.010;2024-01-30T03:01:49;7.30;;;2.25;;
79412;SDS011;68863;49.528;11.010;2024-01-30T03:02:50;5.85;;;2.15;;
79412;SDS011;68863;49.528;11.010;2024-01-30T03:03:50;7.07;;;2.10;;
79412;SDS011;68863;49.528;11.010;2024-01-30T03:04:50;7.28;;;2.33;;
79412;SDS011;68863;49.528;11.010;2024-01-30T03:05:51;8.30;;;2.28;;
79412;SDS011;68863;49.528;11.010;2024-01-30T03:06:51;7.03;;;2.38;;
79412;SDS011;68863;49.528;11.010;2024-01-30T03:07:51;6.18;;;2.35;;
79412;SDS011;68863;49.528;11.010;2024-01-30T03:08:52;6.28;;;2.03;;
79412;SDS011;68863;49.528;11.010;2024-01-30T03:09:52;6.50;;;2.30;;
79412;SDS011;68863;49.528;11.010;2024-01-30T03:10:52;8.70;;;2.10;;
79412;SDS011;68863;49.528;11.010;2024-01-30T03:11:53;8.32;;;2.08;;
79412;SDS011;68863;49.528;11.010;2024-01-30T03:12:53;6.20;;;2.05;;
79412;SDS011;68863;49.528;11.010;2024-01-30T03:13:53;6.28;;;2.30;;
79412;SDS011;68863;49.528;11.010;2024-01-30T03:14:54;8.20;;;2.70;;
79412;SDS011;68863;49.528;11.010;2024-01-30T03:15:54;5.68;;;1.80;;
79412;SDS011;68863;49.528;11.010;2024-01-30T03:16:54;5.85;;;1.98;;
79412;SDS011;68863;49.528;11.010;2024-01-30T03:17:55;6.82;;;2.17;;
79412;SDS011;68863;49.528;11.010;2024-01-30T03:18:55;6.47;;;2.08;;
79412;SDS011;68863;49.528;11.010;2024-01-30T03:19:55;7.72;;;2.60;;
79412;SDS011;68863;49.528;11.010;2024-01-30T03:20:56;5.35;;;2.10;;
79412;SDS011;68863;49.528;11.010;2024-01-30T03:21:56;7.75;;;2.22;;
79412;SDS011;68863;49.528;11.010;2024-01-30T03:22:56;5.82;;;2.40;;
79412;SDS011;68863;49.528;11.010;2024-01-30T03:23:57;7.22;;;2.53;;
79412;SDS011;68863;49.528;11.010;2024-01-30T03:25:00;5.28;;;2.10;;
79412;SDS011;68863;49.528;11.010;2024-01-30T03:26:00;5.82;;;2.10;;
79412;SDS011;68863;49.528;11.010;2024-01-30T03:27:01;7.15;;;2.35;;
79412;SDS011;68863;49.528;11.010;2024-01-30T03:28:01;5.63;;;2.00;;
79412;SDS011;68863;49.528;11.010;2024-01-30T03:29:02;7.47;;;2.28;;
79412;SDS011;68863;49.528;11.010;2024-01-30T03:30:02;5.47;;;1.95;;
79412;SDS011;68863;49.528;11.010;2024-01-30T03:31:03;6.10;;;2.50;;
79412;SDS011;68863;49.528;11.010;2024-01-30T03:32:04;6.53;;;2.55;;
79412;SDS011;68863;49.528;11.010;2024-01-30T03:33:04;5.32;;;1.75;;
79412;SDS011;68863;49.528;11.010;2024-01-30T03:34:05;10.48;;;2.50;;
79412;SDS011;68863;49.528;11.010;2024-01-30T03:35:05;7.05;;;1.90;;
79412;SDS011;68863;49.528;11.010;2024-01-30T03:36:06;9.43;;;2.33;;
79412;SDS011;68863;49.528;11.010;2024-01-30T03:37:06;6.38;;;1.45;;
79412;SDS011;68863;49.528;11.010;2024-01-30T03:38:07;5.45;;;2.10;;
79412;SDS011;68863;49.528;11.010;2024-01-30T03:39:07;6.85;;;2.28;;
79412;SDS011;68863;49.528;11.010;2024-01-30T03:40:08;6.13;;;2.15;;
79412;SDS011;68863;49.528;11.010;2024-01-30T03:41:08;7.43;;;2.22;;
79412;SDS011;68863;49.528;11.010;2024-01-30T03:42:09;7.90;;;1.95;;
79412;SDS011;68863;49.528;11.010;2024-01-30T03:43:10;6.35;;;2.30;;
79412;SDS011;68863;49.528;11.010;2024-01-30T03:44:10;7.28;;;2.50;;
79412;SDS011;68863;49.528;11.010;2024-01-30T03:45:11;7.38;;;2.00;;
79412;SDS011;68863;49.528;11.010;2024-01-30T03:46:12;6.07;;;1.90;;
79412;SDS011;68863;49.528;11.010;2024-01-30T03:47:13;5.85;;;1.73;;
79412;SDS011;68863;49.528;11.010;2024-01-30T03:48:13;5.72;;;2.03;;
79412;SDS011;68863;49.528;11.010;2024-01-30T03:49:13;6.47;;;2.17;;
79412;SDS011;68863;49.528;11.010;2024-01-30T03:50:14;5.45;;;2.10;;
79412;SDS011;68863;49.528;11.010;2024-01-30T03:51:14;7.50;;;1.80;;
79412;SDS011;68863;49.528;11.010;2024-01-30T03:52:16;6.45;;;2.33;;
79412;SDS011;68863;49.528;11.010;2024-01-30T03:53:17;7.65;;;1.98;;
79412;SDS011;68863;49.528;11.010;2024-01-30T03:54:17;8.50;;;2.20;;
79412;SDS011;68863;49.528;11.010;2024-01-30T03:55:18;6.97;;;2.00;;
79412;SDS011;68863;49.528;11.010;2024-01-30T03:56:18;8.05;;;2.30;;
79412;SDS011;68863;49.528;11.010;2024-01-30T03:57:18;7.05;;;2.28;;
79412;SDS011;68863;49.528;11.010;2024-01-30T03:58:19;6.03;;;2.00;;
79412;SDS011;68863;49.528;11.010;2024-01-30T03:59:19;6.95;;;2.13;;
79412;SDS011;68863;49.528;11.010;2024-01-30T04:00:23;6.18;;;1.77;;
79412;SDS011;68863;49.528;11.010;2024-01-30T04:01:24;7.18;;;2.60;;
79412;SDS011;68863;49.528;11.010;2024-01-30T04:02:25;7.95;;;2.22;;
79412;SDS011;68863;49.528;11.010;2024-01-30T04:03:25;5.97;;;2.13;;
79412;SDS011;68863;49.528;11.010;2024-01-30T04:04:26;5.55;;;1.98;;
79412;SDS011;68863;49.528;11.010;2024-01-30T04:05:26;6.45;;;2.45;;
79412;SDS011;68863;49.528;11.010;2024-01-30T04:06:26;7.53;;;2.05;;
79412;SDS011;68863;49.528;11.010;2024-01-30T04:07:27;6.03;;;1.92;;
79412;SDS011;68863;49.528;11.010;2024-01-30T04:08:27;6.50;;;2.05;;
79412;SDS011;68863;49.528;11.010;2024-01-30T04:09:27;6.70;;;1.95;;
79412;SDS011;68863;49.528;11.010;2024-01-30T04:10:28;6.00;;;2.28;;
79412;SDS011;68863;49.528;11.010;2024-01-30T04:11:28;6.45;;;2.50;;
79412;SDS011;68863;49.528;11.010;2024-01-30T04:12:29;7.82;;;2.47;;
79412;SDS011;68863;49.528;11.010;2024-01-30T04:13:29;8.52;;;3.45;;
79412;SDS011;68863;49.528;11.010;2024-01-30T04:14:30;7.72;;;2.95;;
79412;SDS011;68863;49.528;11.010;2024-01-30T04:15:30;11.05;;;3.05;;
79412;SDS011;68863;49.528;11.010;2024-01-30T04:16:31;10.00;;;3.78;;
79412;SDS011;68863;49.528;11.010;2024-01-30T04:17:31;11.73;;;3.22;;
79412;SDS011;68863;49.528;11.010;2024-01-30T04:18:32;8.77;;;3.25;;
79412;SDS011;68863;49.528;11.010;2024-01-30T04:19:36;7.72;;;2.80;;
79412;SDS011;68863;49.528;11.010;2024-01-30T04:20:38;9.98;;;2.90;;
79412;SDS011;68863;49.528;11.010;2024-01-30T04:21:38;6.22;;;2.55;;
79412;SDS011;68863;49.528;11.010;2024-01-30T04:22:39;7.72;;;2.58;;
79412;SDS011;68863;49.528;11.010;2024-01-30T04:23:40;7.03;;;2.58;;
79412;SDS011;68863;49.528;11.010;2024-01-30T04:24:41;8.43;;;2.83;;
79412;SDS011;68863;49.528;11.010;2024-01-30T04:25:41;8.80;;;3.05;;
79412;SDS011;68863;49.528;11.010;2024-01-30T04:26:41;11.18;;;3.75;;
79412;SDS011;68863;49.528;11.010;2024-01-30T04:27:42;12.50;;;4.22;;
79412;SDS011;68863;49.528;11.010;2024-01-30T04:28:44;13.95;;;5.13;;
79412;SDS011;68863;49.528;11.010;2024-01-30T04:29:45;12.90;;;4.45;;
79412;SDS011;68863;49.528;11.010;2024-01-30T04:30:45;11.70;;;4.50;;
79412;SDS011;68863;49.528;11.010;2024-01-30T04:31:45;9.13;;;3.63;;
79412;SDS011;68863;49.528;11.010;2024-01-30T04:32:46;10.05;;;3.30;;
79412;SDS011;68863;49.528;11.010;2024-01-30T04:33:46;8.85;;;4.00;;
79412;SDS011;68863;49.528;11.010;2024-01-30T04:34:46;7.75;;;2.70;;
79412;SDS011;68863;49.528;11.010;2024-01-30T04:35:47;6.18;;;2.80;;
79412;SDS011;68863;49.528;11.010;2024-01-30T04:36:47;9.68;;;2.63;;
79412;SDS011;68863;49.528;11.010;2024-01-30T04:37:47;7.70;;;2.40;;
79412;SDS011;68863;49.528;11.010;2024-01-30T04:38:48;6.95;;;2.08;;
79412;SDS011;68863;49.528;11.010;2024-01-30T04:39:48;5.22;;;2.15;;
79412;SDS011;68863;49.528;11.010;2024-01-30T04:40:49;6.40;;;2.00;;
79412;SDS011;68863;49.528;11.010;2024-01-30T04:41:49;7.43;;;2.17;;
79412;SDS011;68863;49.528;11.010;2024-01-30T04:42:49;6.03;;;2.47;;
79412;SDS011;68863;49.528;11.010;2024-01-30T04:43:50;7.88;;;2.03;;
79412;SDS011;68863;49.528;11.010;2024-01-30T04:44:50;6.40;;;2.10;;
79412;SDS011;68863;49.528;11.010;2024-01-30T04:45:51;6.03;;;1.98;;
79412;SDS011;68863;49.528;11.010;2024-01-30T04:46:51;6.00;;;2.13;;
79412;SDS011;68863;49.528;11.010;2024-01-30T04:47:51;8.48;;;2.15;;
79412;SDS011;68863;49.528;11.010;2024-01-30T04:48:52;6.60;;;1.80;;
79412;SDS011;68863;49.528;11.010;2024-01-30T04:49:52;4.88;;;1.73;;
79412;SDS011;68863;49.528;11.010;2024-01-30T04:50:53;6.35;;;2.00;;
79412;SDS011;68863;49.528;11.010;2024-01-30T04:51:53;5.13;;;1.65;;
79412;SDS011;68863;49.528;11.010;2024-01-30T04:52:53;6.35;;;1.67;;
79412;SDS011;68863;49.528;11.010;2024-01-30T04:53:54;4.72;;;1.45;;
79412;SDS011;68863;49.528;11.010;2024-01-30T04:54:54;6.90;;;1.52;;
79412;SDS011;68863;49.528;11.010;2024-01-30T04:55:55;6.07;;;1.55;;
79412;SDS011;68863;49.528;11.010;2024-01-30T04:56:55;6.07;;;1.70;;
79412;SDS011;68863;49.528;11.010;2024-01-30T04:57:55;5.10;;;1.48;;
79412;SDS011;68863;49.528;11.010;2024-01-30T04:58:56;5.90;;;1.45;;
79412;SDS011;68863;49.528;11.010;2024-01-30T04:59:56;5.65;;;1.70;;
79412;SDS011;68863;49.528;11.010;2024-01-30T05:00:56;5.93;;;1.77;;
79412;SDS011;68863;49.528;11.010;2024-01-30T05:01:57;7.32;;;2.08;;
79412;SDS011;68863;49.528;11.010;2024-01-30T05:02:57;5.43;;;1.38;;
79412;SDS011;68863;49.528;11.010;2024-01-30T05:03:57;4.57;;;1.50;;
79412;SDS011;68863;49.528;11.010;2024-01-30T05:04:58;7.90;;;1.60;;
79412;SDS011;68863;49.528;11.010;2024-01-30T05:05:58;6.13;;;1.83;;
79412;SDS011;68863;49.528;11.010;2024-01-30T05:06:59;7.68;;;2.20;;
79412;SDS011;68863;49.528;11.010;2024-01-30T05:07:59;5.45;;;1.70;;
79412;SDS011;68863;49.528;11.010;2024-01-30T05:08:59;6.05;;;2.03;;
79412;SDS011;68863;49.528;11.010;2024-01-30T05:10:00;5.38;;;1.42;;
79412;SDS011;68863;49.528;11.010;2024-01-30T05:11:00;6.43;;;1.80;;
79412;SDS011;68863;49.528;11.010;2024-01-30T05:12:02;6.05;;;1.70;;
79412;SDS011;68863;49.528;11.010;2024-01-30T05:13:02;7.75;;;2.00;;
79412;SDS011;68863;49.528;11.010;2024-01-30T05:14:03;7.93;;;2.53;;
79412;SDS011;68863;49.528;11.010;2024-01-30T05:15:03;8.27;;;2.42;;
79412;SDS011;68863;49.528;11.010;2024-01-30T05:16:04;6.50;;;2.10;;
79412;SDS011;68863;49.528;11.010;2024-01-30T05:17:05;5.10;;;1.92;;
79412;SDS011;68863;49.528;11.010;2024-01-30T05:18:05;8.10;;;2.00;;
79412;SDS011;68863;49.528;11.010;2024-01-30T05:19:05;6.00;;;1.90;;
79412;SDS011;68863;49.528;11.010;2024-01-30T05:20:06;6.55;;;2.15;;
79412;SDS011;68863;49.528;11.010;2024-01-30T05:21:07;7.15;;;2.47;;
79412;SDS011;68863;49.528;11.010;2024-01-30T05:22:07;6.22;;;2.75;;
79412;SDS011;68863;49.528;11.010;2024-01-30T05:23:08;6.82;;;2.72;;
79412;SDS011;68863;49.528;11.010;2024-01-30T05:24:08;5.60;;;2.83;;
79412;SDS011;68863;49.528;11.010;2024-01-30T05:25:10;7.30;;;2.67;;
79412;SDS011;68863;49.528;11.010;2024-01-30T05:26:12;7.10;;;2.30;;
79412;SDS011;68863;49.528;11.010;2024-01-30T05:27:12;7.13;;;2.50;;
79412;SDS011;68863;49.528;11.010;2024-01-30T05:28:15;6.90;;;2.50;;
79412;SDS011;68863;49.528;11.010;2024-01-30T05:29:16;7.45;;;2.50;;
79412;SDS011;68863;49.528;11.010;2024-01-30T05:30:16;6.13;;;1.92;;
79412;SDS011;68863;49.528;11.010;2024-01-30T05:31:16;7.32;;;2.53;;
79412;SDS011;68863;49.528;11.010;2024-01-30T05:32:17;6.22;;;2.15;;
79412;SDS011;68863;49.528;11.010;2024-01-30T05:33:17;5.15;;;2.25;;
79412;SDS011;68863;49.528;11.010;2024-01-30T05:34:17;6.28;;;2.17;;
79412;SDS011;68863;49.528;11.010;2024-01-30T05:35:18;5.22;;;1.95;;
79412;SDS011;68863;49.528;11.010;2024-01-30T05:36:20;6.05;;;2.05;;
79412;SDS011;68863;49.528;11.010;2024-01-30T05:37:21;7.57;;;1.92;;
79412;SDS011;68863;49.528;11.010;2024-01-30T05:38:24;4.90;;;1.85;;
79412;SDS011;68863;49.528;11.010;2024-01-30T05:39:24;4.88;;;1.98;;
79412;SDS011;68863;49.528;11.010;2024-01-30T05:40:25;6.00;;;1.90;;
79412;SDS011;68863;49.528;11.010;2024-01-30T05:41:25;4.10;;;1.63;;
79412;SDS011;68863;49.528;11.010;2024-01-30T05:42:26;5.30;;;1.90;;
79412;SDS011;68863;49.528;11.010;2024-01-30T05:43:27;5.55;;;1.83;;
79412;SDS011;68863;49.528;11.010;2024-01-30T05:44:27;4.93;;;1.60;;
79412;SDS011;68863;49.528;11.010;2024-01-30T05:45:27;6.35;;;2.00;;
79412;SDS011;68863;49.528;11.010;2024-01-30T05:46:28;4.60;;;1.67;;
79412;SDS011;68863;49.528;11.010;2024-01-30T05:47:28;6.43;;;1.92;;
79412;SDS011;68863;49.528;11.010;2024-01-30T05:48:28;7.22;;;1.58;;
79412;SDS011;68863;49.528;11.010;2024-01-30T05:49:29;5.55;;;2.08;;
79412;SDS011;68863;49.528;11.010;2024-01-30T05:50:29;5.93;;;1.63;;
79412;SDS011;68863;49.528;11.010;2024-01-30T05:51:30;5.53;;;1.90;;
79412;SDS011;68863;49.528;11.010;2024-01-30T05:52:30;5.10;;;1.77;;
79412;SDS011;68863;49.528;11.010;2024-01-30T05:53:30;6.82;;;1.58;;
79412;SDS011;68863;49.528;11.010;2024-01-30T05:54:31;5.30;;;2.10;;
79412;SDS011;68863;49.528;11.010;2024-01-30T05:55:31;5.03;;;1.65;;
79412;SDS011;68863;49.528;11.010;2024-01-30T05:56:32;6.85;;;2.00;;
79412;SDS011;68863;49.528;11.010;2024-01-30T05:57:32;6.20;;;1.85;;
79412;SDS011;68863;49.528;11.010;2024-01-30T05:58:32;6.55;;;1.92;;
79412;SDS011;68863;49.528;11.010;2024-01-30T05:59:33;6.68;;;1.80;;